createdAt,value
2018-05-18T00:01:30.607Z,25.73
2018-05-18T00:04:13.546Z,24.93
2018-05-18T00:06:49.163Z,25.83
2018-05-18T00:09:24.032Z,27.47
2018-05-18T00:11:59.700Z,27.67
2018-05-18T00:14:35.628Z,23.77
2018-05-18T00:17:16.734Z,26.87
2018-05-18T00:19:54.420Z,26.60
2018-05-18T00:22:30.275Z,27.30
2018-05-18T00:25:03.788Z,28.67
2018-05-18T00:27:37.443Z,30.37
2018-05-18T00:30:11.121Z,31.30
2018-05-18T00:32:44.766Z,32.40
2018-05-18T00:35:18.444Z,35.47
2018-05-18T00:37:52.088Z,36.10
2018-05-18T00:40:25.765Z,32.33
2018-05-18T00:42:59.408Z,35.43
2018-05-18T00:45:33.856Z,34.60
2018-05-18T00:48:07.495Z,32.97
2018-05-18T00:50:41.174Z,32.17
2018-05-18T00:53:14.816Z,32.23
2018-05-18T00:55:48.495Z,33.47
2018-05-18T00:58:22.134Z,32.77
2018-05-18T01:00:57.561Z,35.13
2018-05-18T01:03:31.212Z,34.10
2018-05-18T01:06:05.544Z,33.50
2018-05-18T01:08:40.171Z,33.80
2018-05-18T01:11:14.851Z,33.37
2018-05-18T01:13:48.499Z,33.13
2018-05-18T01:16:23.187Z,33.90
2018-05-18T01:18:56.838Z,35.67
2018-05-18T01:21:30.524Z,32.97
2018-05-18T01:24:04.178Z,32.97
2018-05-18T01:26:38.890Z,29.13
2018-05-18T01:29:14.261Z,31.10
2018-05-18T01:31:48.915Z,30.50
2018-05-18T01:34:22.560Z,30.73
2018-05-18T01:36:56.998Z,29.43
2018-05-18T01:39:31.607Z,28.50
2018-05-18T01:42:06.065Z,28.60
2018-05-18T02:02:29.605Z,28.67
2018-05-18T02:05:03.279Z,28.27
2018-05-18T02:07:37.895Z,27.70
2018-05-18T02:10:11.569Z,27.47
2018-05-18T02:12:45.224Z,27.80
2018-05-18T02:15:19.674Z,26.37
2018-05-18T02:17:53.318Z,25.20
2018-05-18T02:20:27.011Z,23.30
2018-05-18T02:23:00.657Z,24.10
2018-05-18T02:25:34.357Z,24.10
2018-05-18T02:28:08.005Z,25.40
2018-05-18T02:30:41.696Z,24.17
2018-05-18T02:33:15.366Z,25.33
2018-05-18T02:35:49.045Z,23.70
2018-05-18T02:38:23.458Z,24.17
2018-05-18T02:40:57.916Z,23.07
2018-05-18T02:43:31.551Z,24.10
2018-05-18T02:46:04.908Z,22.33
2018-05-18T02:48:38.554Z,21.73
2018-05-18T02:51:12.244Z,22.23
2018-05-18T02:53:45.895Z,21.03
2018-05-18T02:56:19.251Z,21.87
2018-05-18T02:58:52.902Z,21.27
2018-05-18T03:01:27.562Z,21.73
2018-05-18T03:04:10.229Z,21.10
2018-05-18T03:06:45.382Z,22.27
2018-05-18T03:09:19.098Z,20.90
2018-05-18T03:11:52.787Z,19.87
2018-05-18T03:14:27.392Z,20.60
2018-05-18T03:17:01.076Z,20.80
2018-05-18T03:19:35.481Z,20.30
2018-05-18T03:22:09.180Z,19.53
2018-05-18T03:24:42.820Z,18.90
2018-05-18T03:27:16.497Z,18.67
2018-05-18T03:29:50.905Z,15.33
2018-05-18T03:32:24.586Z,17.00
2018-05-18T03:34:58.237Z,15.27
2018-05-18T03:37:33.378Z,17.30
2018-05-18T03:40:07.026Z,16.33
2018-05-18T03:42:40.709Z,16.10
2018-05-18T03:45:14.584Z,14.77
2018-05-18T03:47:48.265Z,14.73
2018-05-18T03:50:22.705Z,14.87
2018-05-18T03:52:56.388Z,13.97
2018-05-18T03:55:30.802Z,14.20
2018-05-18T03:58:05.256Z,14.07
2018-05-18T04:00:38.899Z,13.70
2018-05-18T04:03:23.773Z,14.30
2018-05-18T04:06:08.505Z,14.40
2018-05-18T04:08:52.223Z,14.37
2018-05-18T04:11:25.881Z,14.30
2018-05-18T04:14:01.305Z,12.97
2018-05-18T04:16:34.951Z,12.57
2018-05-18T04:19:09.598Z,12.73
2018-05-18T04:21:44.936Z,11.77
2018-05-18T04:24:19.591Z,11.27
2018-05-18T04:26:53.239Z,10.03
2018-05-18T04:29:27.927Z,10.10
2018-05-18T04:32:01.579Z,9.07
2018-05-18T04:34:36.252Z,9.07
2018-05-18T04:37:09.895Z,9.43
2018-05-18T04:39:43.575Z,8.47
2018-05-18T04:42:17.852Z,8.85
2018-05-18T04:44:52.109Z,8.20
2018-05-18T04:47:26.317Z,8.65
2018-05-18T04:50:00.561Z,8.15
2018-05-18T04:52:35.536Z,8.40
2018-05-18T04:55:09.789Z,9.13
2018-05-18T04:57:44.956Z,7.50
2018-05-18T05:00:19.967Z,8.88
2018-05-18T05:02:54.176Z,8.13
2018-05-18T05:05:28.437Z,8.75
2018-05-18T05:08:02.700Z,10.10
2018-05-18T05:10:36.912Z,10.63
2018-05-18T05:13:11.151Z,11.38
2018-05-18T05:15:46.125Z,11.68
2018-05-18T05:18:20.413Z,10.82
2018-05-18T05:20:54.623Z,10.55
2018-05-18T05:23:29.637Z,10.13
2018-05-18T05:26:03.860Z,10.57
2018-05-18T05:28:38.881Z,10.00
2018-05-18T05:31:14.061Z,10.02
2018-05-18T05:33:49.293Z,9.35
2018-05-18T05:36:23.496Z,10.73
2018-05-18T05:38:59.481Z,9.73
2018-05-18T05:41:33.692Z,9.65
2018-05-18T05:44:07.928Z,10.82
2018-05-18T05:46:42.131Z,9.88
2018-05-18T05:49:16.388Z,9.00
2018-05-18T05:51:51.370Z,9.68
2018-05-18T05:54:25.659Z,10.18
2018-05-18T05:56:59.704Z,9.98
2018-05-18T05:59:33.951Z,10.25
2018-05-18T06:02:08.176Z,11.05
2018-05-18T06:04:44.171Z,9.90
2018-05-18T06:07:19.359Z,11.07
2018-05-18T06:09:53.599Z,10.48
2018-05-18T06:12:27.816Z,10.57
2018-05-18T06:15:02.061Z,9.93
2018-05-18T06:17:36.265Z,10.18
2018-05-18T06:20:10.533Z,10.55
2018-05-18T06:22:45.527Z,10.07
2018-05-18T06:25:19.790Z,10.20
2018-05-18T06:27:54.821Z,9.70
2018-05-18T06:30:29.843Z,11.80
2018-05-18T06:33:04.071Z,10.15
2018-05-18T06:35:39.085Z,11.18
2018-05-18T06:38:13.312Z,10.73
2018-05-18T06:40:48.327Z,10.85
2018-05-18T06:43:23.493Z,11.70
2018-05-18T06:45:58.519Z,11.98
2018-05-18T06:48:34.459Z,12.13
2018-05-18T06:51:08.713Z,11.70
2018-05-18T06:53:43.932Z,11.30
2018-05-18T06:56:18.936Z,11.73
2018-05-18T06:58:54.118Z,11.18
2018-05-18T07:01:29.322Z,12.30
2018-05-18T07:04:04.383Z,11.55
2018-05-18T07:06:38.776Z,11.07
2018-05-18T07:09:14.741Z,11.05
2018-05-18T07:11:50.743Z,9.98
2018-05-18T07:14:24.942Z,11.23
2018-05-18T07:16:59.208Z,10.15
2018-05-18T07:19:33.421Z,9.23
2018-05-18T07:22:07.667Z,9.70
2018-05-18T07:24:41.888Z,10.00
2018-05-18T07:27:16.137Z,10.25
2018-05-18T07:29:50.339Z,9.35
2018-05-18T07:32:24.581Z,9.38
2018-05-18T07:34:58.821Z,9.90
2018-05-18T07:37:33.839Z,9.68
2018-05-18T07:40:09.032Z,10.18
2018-05-18T07:42:44.048Z,9.52
2018-05-18T07:45:19.031Z,10.10
2018-05-18T07:47:54.247Z,9.15
2018-05-18T07:50:28.462Z,9.80
2018-05-18T07:53:02.716Z,10.00
2018-05-18T07:55:37.699Z,10.57
2018-05-18T07:58:11.944Z,9.88
2018-05-18T08:00:46.152Z,8.70
2018-05-18T08:03:20.400Z,9.60
2018-05-18T08:05:55.380Z,8.30
2018-05-18T08:08:29.619Z,9.80
2018-05-18T08:11:03.825Z,9.00
2018-05-18T08:13:38.073Z,9.40
2018-05-18T08:16:13.071Z,9.52
2018-05-18T08:18:47.334Z,10.30
2018-05-18T08:21:21.552Z,10.48
2018-05-18T08:23:55.812Z,10.45
2018-05-18T08:26:33.239Z,10.40
2018-05-18T08:29:18.960Z,11.18
2018-05-18T08:31:53.184Z,10.55
2018-05-18T08:34:28.416Z,10.35
2018-05-18T08:37:02.635Z,9.82
2018-05-18T08:39:36.925Z,11.00
2018-05-18T08:47:55.528Z,11.45
2018-05-18T08:53:34.935Z,11.43
2018-05-18T08:58:54.029Z,9.90
2018-05-18T09:01:30.005Z,11.10
2018-05-18T09:04:04.228Z,10.10
2018-05-18T09:06:38.477Z,10.07
2018-05-18T09:09:12.688Z,11.02
2018-05-18T09:11:46.944Z,11.05
2018-05-18T09:14:21.159Z,11.05
2018-05-18T09:16:56.401Z,11.12
2018-05-18T09:19:31.621Z,10.68
2018-05-18T09:22:05.884Z,10.75
2018-05-18T09:24:40.132Z,10.88
2018-05-18T09:27:15.365Z,11.05
2018-05-18T09:29:49.585Z,11.68
2018-05-18T09:32:25.575Z,10.77
2018-05-18T09:34:59.791Z,11.40
2018-05-18T09:37:34.058Z,11.45
2018-05-18T09:40:09.285Z,11.20
2018-05-18T09:42:44.508Z,11.35
2018-05-18T09:45:19.693Z,10.60
2018-05-18T09:47:54.736Z,10.98
2018-05-18T09:50:28.956Z,11.20
2018-05-18T09:53:03.973Z,11.15
2018-05-18T09:55:39.137Z,11.70
2018-05-18T09:58:13.404Z,10.93
2018-05-18T10:00:47.692Z,10.95
2018-05-18T10:03:22.079Z,11.45
2018-05-18T10:05:56.293Z,10.70
2018-05-18T10:08:30.544Z,11.07
2018-05-18T10:11:04.752Z,11.02
2018-05-18T10:13:40.049Z,12.18
2018-05-18T10:16:14.300Z,11.32
2018-05-18T10:18:48.512Z,11.93
2018-05-18T10:21:23.750Z,11.90
2018-05-18T10:23:57.972Z,11.15
2018-05-18T10:26:32.241Z,11.32
2018-05-18T10:29:07.245Z,11.27
2018-05-18T10:31:42.479Z,11.60
2018-05-18T10:34:16.717Z,11.23
2018-05-18T10:36:51.935Z,13.25
2018-05-18T10:39:26.161Z,12.45
2018-05-18T10:42:02.172Z,11.68
2018-05-18T10:44:37.352Z,11.98
2018-05-18T10:47:12.373Z,12.00
2018-05-18T10:49:46.599Z,11.35
2018-05-18T10:52:21.620Z,11.18
2018-05-18T10:54:56.812Z,11.45
2018-05-18T10:57:32.043Z,10.63
2018-05-18T11:00:06.270Z,10.30
2018-05-18T11:02:41.544Z,10.02
2018-05-18T11:05:15.804Z,10.68
2018-05-18T11:07:50.218Z,11.12
2018-05-18T11:10:24.439Z,10.98
2018-05-18T11:12:58.701Z,10.50
2018-05-18T11:15:32.918Z,10.27
2018-05-18T11:18:08.153Z,11.77
2018-05-18T11:20:43.378Z,11.73
2018-05-18T11:23:17.639Z,11.27
2018-05-18T11:25:52.624Z,11.07
2018-05-18T11:28:26.906Z,11.90
2018-05-18T11:31:01.128Z,11.95
2018-05-18T11:33:35.388Z,11.98
2018-05-18T11:36:10.666Z,12.02
2018-05-18T11:38:44.941Z,12.60
2018-05-18T11:41:19.163Z,11.80
2018-05-18T11:43:54.418Z,12.68
2018-05-18T11:46:29.480Z,11.57
2018-05-18T11:49:03.797Z,12.55
2018-05-18T11:54:28.426Z,12.35
2018-05-18T11:57:12.561Z,12.40
2018-05-18T11:59:46.804Z,12.20
2018-05-18T12:02:20.892Z,12.63
2018-05-18T12:04:56.152Z,12.10
2018-05-18T12:07:39.414Z,12.95
2018-05-18T12:10:13.753Z,12.75
2018-05-18T12:12:54.586Z,12.85
2018-05-18T12:15:28.845Z,12.75
2018-05-18T12:18:03.164Z,12.73
2018-05-18T12:20:38.153Z,12.80
2018-05-18T12:23:13.181Z,12.15
2018-05-18T12:25:48.160Z,12.40
2018-05-18T12:28:22.422Z,12.60
2018-05-18T12:30:56.640Z,13.00
2018-05-18T12:33:30.911Z,12.93
2018-05-18T12:36:05.132Z,12.73
2018-05-18T12:38:40.369Z,12.77
2018-05-18T12:41:14.585Z,12.25
2018-05-18T12:43:49.808Z,12.55
2018-05-18T12:46:26.734Z,11.73
2018-05-18T12:49:00.996Z,12.35
2018-05-18T12:51:36.217Z,11.07
2018-05-18T12:54:15.232Z,12.45
2018-05-18T12:59:48.559Z,11.38
2018-05-18T13:02:30.208Z,12.73
2018-05-18T13:05:09.405Z,13.07
2018-05-18T13:07:46.985Z,12.00
2018-05-18T13:10:30.415Z,12.25
2018-05-18T13:13:10.329Z,11.75
2018-05-18T13:15:46.492Z,11.30
2018-05-18T13:18:30.874Z,12.40
2018-05-18T13:21:11.772Z,11.32
2018-05-18T13:23:50.835Z,12.15
2018-05-18T13:29:11.153Z,12.37
2018-05-18T13:31:50.051Z,12.15
2018-05-18T13:34:25.669Z,11.60
2018-05-18T13:37:00.100Z,10.45
2018-05-18T13:39:35.292Z,10.95
2018-05-18T13:42:09.239Z,10.63
2018-05-18T13:44:43.558Z,10.85
2018-05-18T13:47:17.937Z,11.00
2018-05-18T13:49:52.165Z,11.10
2018-05-18T13:52:26.428Z,10.90
2018-05-18T13:55:00.643Z,10.05
2018-05-18T13:57:35.671Z,9.93
2018-05-18T14:00:09.894Z,9.13
2018-05-18T14:02:44.924Z,9.48
2018-05-18T14:05:19.927Z,10.00
2018-05-18T14:07:54.179Z,9.93
2018-05-18T14:10:29.147Z,9.52
2018-05-18T14:13:03.402Z,9.30
2018-05-18T14:15:37.612Z,8.82
2018-05-18T14:18:11.865Z,8.70
2018-05-18T14:20:46.845Z,8.95
2018-05-18T14:23:22.060Z,8.85
2018-05-18T14:25:56.279Z,10.50
2018-05-18T14:28:31.497Z,10.13
2018-05-18T14:31:05.725Z,9.48
2018-05-18T14:33:39.977Z,9.55
2018-05-18T14:36:15.161Z,9.30
2018-05-18T14:38:49.414Z,9.95
2018-05-18T14:41:23.619Z,9.07
2018-05-18T14:43:57.929Z,9.05
2018-05-18T14:46:34.021Z,9.55
2018-05-18T14:49:08.285Z,9.85
2018-05-18T14:51:43.453Z,9.93
2018-05-18T14:54:18.671Z,10.25
2018-05-18T14:56:53.870Z,9.45
2018-05-18T14:59:28.152Z,9.95
2018-05-18T15:02:03.384Z,9.63
2018-05-18T15:04:37.592Z,9.75
2018-05-18T15:07:11.853Z,10.55
2018-05-18T15:09:46.830Z,10.43
2018-05-18T15:12:22.032Z,9.70
2018-05-18T15:14:57.229Z,9.52
2018-05-18T15:17:31.478Z,10.38
2018-05-18T15:20:05.704Z,10.07
2018-05-18T15:22:39.986Z,9.43
2018-05-18T15:25:14.194Z,8.85
2018-05-18T15:27:48.442Z,9.77
2018-05-18T15:30:25.532Z,9.77
2018-05-18T15:32:59.785Z,8.95
2018-05-18T15:35:33.993Z,9.15
2018-05-18T15:38:08.244Z,9.40
2018-05-18T15:40:45.970Z,9.80
2018-05-18T15:46:06.427Z,8.48
2018-05-18T15:48:40.698Z,8.65
2018-05-18T15:51:14.900Z,8.93
2018-05-18T15:53:50.021Z,8.80
2018-05-18T15:56:25.017Z,10.30
2018-05-18T15:58:59.256Z,8.73
2018-05-18T16:01:33.489Z,9.60
2018-05-18T16:04:08.480Z,9.00
2018-05-18T16:06:42.746Z,8.98
2018-05-18T16:09:16.953Z,8.25
2018-05-18T16:11:51.964Z,8.13
2018-05-18T16:14:26.189Z,8.23
2018-05-18T16:17:02.194Z,8.73
2018-05-18T16:19:36.404Z,8.30
2018-05-18T16:22:10.650Z,7.00
2018-05-18T16:24:44.870Z,8.13
2018-05-18T16:27:20.123Z,7.85
2018-05-18T16:29:54.325Z,7.72
2018-05-18T16:32:28.573Z,7.82
2018-05-18T16:35:02.789Z,8.38
2018-05-18T16:37:37.031Z,7.25
2018-05-18T16:40:11.892Z,8.25
2018-05-18T16:42:46.334Z,8.50
2018-05-18T16:45:21.328Z,8.52
2018-05-18T16:47:55.577Z,10.30
2018-05-18T16:50:30.568Z,8.63
2018-05-18T16:53:04.809Z,8.05
2018-05-18T16:55:39.055Z,8.48
2018-05-18T16:58:13.460Z,8.43
2018-05-18T17:00:48.434Z,8.82
2018-05-18T17:03:23.676Z,8.32
2018-05-18T17:05:57.884Z,8.20
2018-05-18T17:08:33.104Z,7.87
2018-05-18T17:11:07.315Z,8.50
2018-05-18T17:13:41.565Z,8.13
2018-05-18T17:16:16.768Z,8.75
2018-05-18T17:18:51.974Z,8.30
2018-05-18T17:21:26.956Z,8.20
2018-05-18T17:24:01.211Z,7.68
2018-05-18T17:26:35.416Z,8.20
2018-05-18T17:29:09.663Z,8.57
2018-05-18T17:31:44.636Z,9.32
2018-05-18T17:34:18.876Z,9.00
2018-05-18T17:36:53.094Z,7.95
2018-05-18T17:39:28.317Z,8.73
2018-05-18T17:42:02.533Z,8.23
2018-05-18T17:44:36.785Z,8.77
2018-05-18T17:47:11.758Z,9.15
2018-05-18T17:49:46.005Z,8.98
2018-05-18T17:52:19.887Z,9.68
2018-05-18T17:54:55.123Z,9.52
2018-05-18T17:57:30.276Z,9.48
2018-05-18T18:00:03.843Z,9.43
2018-05-18T18:02:38.059Z,9.07
2018-05-18T18:05:12.306Z,9.23
2018-05-18T18:07:46.576Z,9.23
2018-05-18T18:10:21.935Z,10.10
2018-05-18T18:12:56.148Z,12.52
2018-05-18T18:15:30.399Z,11.80
2018-05-18T18:18:04.611Z,10.65
2018-05-18T18:20:39.817Z,8.85
2018-05-18T18:23:14.032Z,10.10
2018-05-18T18:25:49.265Z,10.65
2018-05-18T18:28:23.494Z,10.05
2018-05-18T18:30:57.782Z,10.68
2018-05-18T18:33:31.429Z,10.05
2018-05-18T18:36:04.796Z,8.90
2018-05-18T18:38:40.198Z,8.90
2018-05-18T18:41:16.181Z,8.90
2018-05-18T18:43:51.334Z,8.52
2018-05-18T18:46:25.565Z,9.65
2018-05-18T18:48:59.236Z,9.73
2018-05-18T18:51:34.426Z,9.13
2018-05-18T18:54:08.132Z,8.43
2018-05-18T18:56:41.941Z,9.17
2018-05-18T18:59:16.909Z,8.50
2018-05-18T19:01:50.599Z,8.53
2018-05-18T19:04:24.240Z,8.50
2018-05-18T19:06:57.922Z,7.97
2018-05-18T19:09:32.329Z,7.93
2018-05-18T19:12:06.017Z,8.10
2018-05-18T19:14:39.655Z,8.33
2018-05-18T19:17:14.105Z,8.07
2018-05-18T19:19:47.744Z,8.00
2018-05-18T19:22:21.426Z,8.40
2018-05-18T19:24:56.053Z,8.03
2018-05-18T19:27:29.741Z,8.27
2018-05-18T19:30:03.873Z,8.77
2018-05-18T19:32:37.559Z,8.63
2018-05-18T19:35:12.166Z,8.67
2018-05-18T19:37:46.830Z,8.47
2018-05-18T19:40:20.483Z,8.30
2018-05-18T19:42:54.188Z,9.30
2018-05-18T19:45:28.808Z,11.97
2018-05-18T19:48:02.488Z,9.57
2018-05-18T19:50:36.125Z,9.60
2018-05-18T19:53:09.844Z,9.53
2018-05-18T19:55:44.461Z,10.10
2018-05-18T19:58:18.172Z,9.20
2018-05-18T20:00:51.814Z,9.37
2018-05-18T20:03:27.299Z,9.23
2018-05-18T20:06:02.823Z,9.13
2018-05-18T20:08:36.508Z,9.73
2018-05-18T20:11:11.888Z,8.37
2018-05-18T20:13:46.552Z,8.80
2018-05-18T20:16:20.212Z,9.30
2018-05-18T20:18:54.159Z,8.47
2018-05-18T20:21:27.796Z,8.93
2018-05-18T20:24:01.474Z,8.70
2018-05-18T20:26:35.881Z,8.00
2018-05-18T20:29:09.557Z,8.63
2018-05-18T20:31:43.197Z,8.33
2018-05-18T20:34:17.638Z,9.37
2018-05-18T20:36:52.239Z,9.13
2018-05-18T20:39:27.649Z,8.73
2018-05-18T20:42:01.302Z,9.33
2018-05-18T20:44:35.968Z,9.50
2018-05-18T20:47:09.610Z,8.70
2018-05-18T20:49:43.288Z,8.80
2018-05-18T20:52:17.896Z,8.40
2018-05-18T20:54:52.541Z,7.63
2018-05-18T20:57:26.183Z,7.40
2018-05-18T21:00:00.853Z,8.30
2018-05-18T21:02:35.470Z,8.40
2018-05-18T21:05:09.147Z,7.87
2018-05-18T21:07:42.789Z,7.43
2018-05-18T21:10:16.459Z,7.47
2018-05-18T21:12:50.096Z,7.10
2018-05-18T21:15:24.732Z,6.93
2018-05-18T21:17:59.137Z,7.43
2018-05-18T21:20:32.845Z,7.57
2018-05-18T21:23:07.244Z,7.30
2018-05-18T21:25:40.923Z,7.93
2018-05-18T21:28:14.554Z,7.27
2018-05-18T21:30:48.232Z,8.47
2018-05-18T21:33:22.865Z,8.27
2018-05-18T21:35:57.212Z,8.80
2018-05-18T21:38:31.615Z,8.27
2018-05-18T21:41:05.313Z,8.07
2018-05-18T21:43:38.946Z,8.37
2018-05-18T21:46:13.586Z,8.30
2018-05-18T21:48:47.224Z,7.90
2018-05-18T21:51:20.905Z,8.20
2018-05-18T21:53:54.540Z,8.87
2018-05-18T21:56:28.219Z,9.53
2018-05-18T21:59:01.854Z,9.53
2018-05-18T22:01:36.299Z,8.07
2018-05-18T22:04:10.936Z,8.10
2018-05-18T22:06:44.613Z,8.53
2018-05-18T22:09:18.253Z,8.63
2018-05-18T22:11:51.920Z,8.80
2018-05-18T22:14:25.557Z,8.13
2018-05-18T22:16:59.239Z,8.00
2018-05-18T22:19:32.888Z,9.70
2018-05-18T22:22:06.576Z,9.17
2018-05-18T22:24:40.217Z,8.50
2018-05-18T22:27:15.624Z,9.17
2018-05-18T22:29:49.264Z,8.97
2018-05-18T22:32:22.945Z,9.60
2018-05-18T22:34:57.372Z,9.60
2018-05-18T22:37:31.838Z,10.47
2018-05-18T22:40:05.473Z,10.50
2018-05-18T22:42:39.161Z,9.27
2018-05-18T22:45:12.804Z,9.17
2018-05-18T22:47:46.479Z,9.93
2018-05-18T22:50:20.116Z,10.03
2018-05-18T22:52:53.799Z,10.53
2018-05-18T22:55:28.198Z,10.87
2018-05-18T22:58:02.854Z,11.97
2018-05-18T23:00:37.452Z,11.30
2018-05-18T23:03:11.910Z,11.93
2018-05-18T23:05:45.552Z,12.63
2018-05-18T23:08:19.250Z,11.87
2018-05-18T23:10:52.901Z,12.70
2018-05-18T23:13:26.772Z,12.90
2018-05-18T23:16:00.419Z,13.00
2018-05-18T23:18:50.411Z,12.40
2018-05-18T23:21:25.023Z,12.47
2018-05-18T23:24:00.043Z,11.97
2018-05-18T23:26:35.085Z,11.30
2018-05-18T23:29:08.780Z,11.00
2018-05-18T23:31:42.108Z,10.70
2018-05-18T23:34:17.616Z,10.60
2018-05-18T23:36:51.265Z,10.77
2018-05-18T23:39:26.489Z,11.30
2018-05-18T23:42:02.564Z,12.00
2018-05-18T23:44:39.912Z,10.77
2018-05-18T23:47:15.084Z,10.53
2018-05-18T23:49:48.765Z,10.70
2018-05-18T23:52:22.406Z,10.40
2018-05-18T23:54:57.166Z,10.33
2018-05-18T23:57:35.579Z,11.07
